createdAt,value
2022-08-19T00:00:41.902Z,988.79
2022-08-19T00:01:41.897Z,988.80
2022-08-19T00:02:50.021Z,988.77
2022-08-19T00:03:42.883Z,988.80
2022-08-19T00:04:41.904Z,988.76
2022-08-19T00:05:41.866Z,988.65
2022-08-19T00:06:41.861Z,988.73
2022-08-19T00:07:41.874Z,988.64
2022-08-19T00:08:42.881Z,988.69
2022-08-19T00:09:41.832Z,988.71
2022-08-19T00:10:41.826Z,988.68
2022-08-19T00:11:41.817Z,988.68
2022-08-19T00:12:46.800Z,988.71
2022-08-19T00:13:42.798Z,988.63
2022-08-19T00:14:41.794Z,988.62
2022-08-19T00:15:41.787Z,988.64
2022-08-19T00:16:41.781Z,988.65
2022-08-19T00:17:42.049Z,988.68
2022-08-19T00:18:41.772Z,988.60
2022-08-19T00:19:41.757Z,988.64
2022-08-19T00:20:41.753Z,988.69
2022-08-19T00:21:41.738Z,988.71
2022-08-19T00:22:41.765Z,988.67
2022-08-19T00:23:41.723Z,988.66
2022-08-19T00:24:41.716Z,988.64
2022-08-19T00:25:42.707Z,988.62
2022-08-19T00:26:42.697Z,988.61
2022-08-19T00:27:41.717Z,988.56
2022-08-19T00:28:41.684Z,988.59
2022-08-19T00:29:41.690Z,988.56
2022-08-19T00:30:41.667Z,988.49
2022-08-19T00:31:41.659Z,988.58
2022-08-19T00:32:41.653Z,988.56
2022-08-19T00:33:41.672Z,988.53
2022-08-19T00:34:41.635Z,988.50
2022-08-19T00:35:41.630Z,988.50
2022-08-19T00:36:41.620Z,988.50
2022-08-19T00:37:41.612Z,988.50
2022-08-19T00:38:41.634Z,988.49
2022-08-19T00:39:41.661Z,988.50
2022-08-19T00:40:41.591Z,988.54
2022-08-19T00:41:41.587Z,988.48
2022-08-19T00:42:41.579Z,988.53
2022-08-19T00:43:41.601Z,988.57
2022-08-19T00:44:41.568Z,988.53
2022-08-19T00:45:41.556Z,988.54
2022-08-19T00:46:41.552Z,988.53
2022-08-19T00:47:41.546Z,988.44
2022-08-19T00:48:41.564Z,988.43
2022-08-19T00:49:41.531Z,988.39
2022-08-19T00:50:51.620Z,988.35
2022-08-19T00:51:42.511Z,988.32
2022-08-19T00:52:41.507Z,988.35
2022-08-19T00:53:41.526Z,988.39
2022-08-19T00:54:41.492Z,988.36
2022-08-19T00:55:41.484Z,988.32
2022-08-19T00:56:41.693Z,988.41
2022-08-19T00:57:41.472Z,988.28
2022-08-19T00:58:41.493Z,988.33
2022-08-19T00:59:56.168Z,988.36
2022-08-19T01:00:42.446Z,988.37
2022-08-19T01:01:41.573Z,988.36
2022-08-19T01:02:41.435Z,988.35
2022-08-19T01:03:57.002Z,988.38
2022-08-19T01:04:42.409Z,988.37
2022-08-19T01:05:41.407Z,988.42
2022-08-19T01:06:41.403Z,988.32
2022-08-19T01:07:41.392Z,988.29
2022-08-19T01:08:41.411Z,988.36
2022-08-19T01:09:41.378Z,988.37
2022-08-19T01:10:41.373Z,988.36
2022-08-19T01:11:41.370Z,988.41
2022-08-19T01:12:41.360Z,988.47
2022-08-19T01:13:49.190Z,988.45
2022-08-19T01:14:42.339Z,988.49
2022-08-19T01:15:41.328Z,988.54
2022-08-19T01:16:41.326Z,988.56
2022-08-19T01:17:41.318Z,988.52
2022-08-19T01:18:41.339Z,988.49
2022-08-19T01:19:43.512Z,988.54
2022-08-19T01:20:41.295Z,988.50
2022-08-19T01:21:41.286Z,988.51
2022-08-19T01:22:41.281Z,988.50
2022-08-19T01:23:41.294Z,988.48
2022-08-19T01:24:42.242Z,988.44
2022-08-19T01:25:42.256Z,988.42
2022-08-19T01:26:41.246Z,988.37
2022-08-19T01:27:43.206Z,988.35
2022-08-19T01:28:42.308Z,988.34
2022-08-19T01:29:41.224Z,988.35
2022-08-19T01:30:44.213Z,988.35
2022-08-19T01:31:41.210Z,988.30
2022-08-19T01:32:41.200Z,988.29
2022-08-19T01:33:42.222Z,988.28
2022-08-19T01:34:41.188Z,988.28
2022-08-19T01:35:41.176Z,988.27
2022-08-19T01:36:41.170Z,988.23
2022-08-19T01:37:41.161Z,988.30
2022-08-19T01:38:44.002Z,988.30
2022-08-19T01:39:41.189Z,988.30
2022-08-19T01:40:41.144Z,988.33
2022-08-19T01:41:41.129Z,988.34
2022-08-19T01:42:41.124Z,988.37
2022-08-19T01:44:13.720Z,988.33
2022-08-19T01:44:42.108Z,988.37
2022-08-19T01:45:41.097Z,988.35
2022-08-19T01:46:41.087Z,988.31
2022-08-19T01:47:41.085Z,988.41
2022-08-19T01:48:41.074Z,988.33
2022-08-19T01:49:41.101Z,988.38
2022-08-19T01:50:41.061Z,988.41
2022-08-19T01:51:41.045Z,988.38
2022-08-19T01:52:41.048Z,988.39
2022-08-19T01:53:41.064Z,988.43
2022-08-19T01:54:41.058Z,988.41
2022-08-19T01:55:41.571Z,988.38
2022-08-19T01:56:41.015Z,988.35
2022-08-19T01:57:41.019Z,988.34
2022-08-19T01:58:40.995Z,988.31
2022-08-19T01:59:41.015Z,988.41
2022-08-19T02:00:40.984Z,988.42
2022-08-19T02:01:41.033Z,988.41
2022-08-19T02:02:40.953Z,988.38
2022-08-19T02:03:41.959Z,988.39
2022-08-19T02:04:40.982Z,988.41
2022-08-19T02:05:40.941Z,988.41
2022-08-19T02:06:40.935Z,988.44
2022-08-19T02:07:41.332Z,988.49
2022-08-19T02:08:40.920Z,988.41
2022-08-19T02:09:40.935Z,988.38
2022-08-19T02:10:40.903Z,988.38
2022-08-19T02:11:40.889Z,988.29
2022-08-19T02:12:40.887Z,988.38
2022-08-19T02:13:40.879Z,988.36
2022-08-19T02:14:40.901Z,988.36
2022-08-19T02:15:40.866Z,988.32
2022-08-19T02:16:40.854Z,988.32
2022-08-19T02:17:40.850Z,988.33
2022-08-19T02:18:40.843Z,988.34
2022-08-19T02:19:40.964Z,988.39
2022-08-19T02:20:40.830Z,988.40
2022-08-19T02:21:40.813Z,988.44
2022-08-19T02:22:40.807Z,988.44
2022-08-19T02:23:40.799Z,988.42
2022-08-19T02:24:40.820Z,988.49
2022-08-19T02:25:40.785Z,988.42
2022-08-19T02:26:40.776Z,988.38
2022-08-19T02:27:40.768Z,988.42
2022-08-19T02:28:40.764Z,988.39
2022-08-19T02:29:40.782Z,988.38
2022-08-19T02:30:40.746Z,988.39
2022-08-19T02:31:40.731Z,988.39
2022-08-19T02:32:44.504Z,988.40
2022-08-19T02:33:40.729Z,988.40
2022-08-19T02:34:40.719Z,988.44
2022-08-19T02:35:40.734Z,988.38
2022-08-19T02:36:42.437Z,988.37
2022-08-19T02:37:40.690Z,988.38
2022-08-19T02:38:40.687Z,988.43
2022-08-19T02:39:40.717Z,988.36
2022-08-19T02:40:40.692Z,988.31
2022-08-19T02:41:40.656Z,988.42
2022-08-19T02:42:40.652Z,988.38
2022-08-19T02:43:40.638Z,988.43
2022-08-19T02:44:41.629Z,988.34
2022-08-19T02:45:41.638Z,988.37
2022-08-19T02:46:40.614Z,988.41
2022-08-19T02:47:40.607Z,988.39
2022-08-19T02:48:40.604Z,988.43
2022-08-19T02:49:40.595Z,988.49
2022-08-19T02:50:40.605Z,988.51
2022-08-19T02:51:41.574Z,988.52
2022-08-19T02:52:40.573Z,988.52
2022-08-19T02:53:40.562Z,988.53
2022-08-19T02:54:40.558Z,988.50
2022-08-19T02:55:46.091Z,988.49
2022-08-19T02:56:41.545Z,988.50
2022-08-19T02:57:40.532Z,988.45
2022-08-19T02:58:40.524Z,988.50
2022-08-19T02:59:40.513Z,988.44
2022-08-19T03:00:40.538Z,988.50
2022-08-19T03:01:40.584Z,988.47
2022-08-19T03:02:40.494Z,988.48
2022-08-19T03:03:40.486Z,988.42
2022-08-19T03:04:40.476Z,988.44
2022-08-19T03:05:47.938Z,988.37
2022-08-19T03:06:41.464Z,988.39
2022-08-19T03:07:40.456Z,988.32
2022-08-19T03:08:40.450Z,988.43
2022-08-19T03:09:40.444Z,988.41
2022-08-19T03:10:40.458Z,988.37
2022-08-19T03:11:40.421Z,988.44
2022-08-19T03:12:40.417Z,988.40
2022-08-19T03:13:40.404Z,988.35
2022-08-19T03:14:40.399Z,988.40
2022-08-19T03:15:40.416Z,988.37
2022-08-19T03:16:40.385Z,988.45
2022-08-19T03:17:40.378Z,988.43
2022-08-19T03:18:40.372Z,988.40
2022-08-19T03:19:40.371Z,988.42
2022-08-19T03:20:40.373Z,988.44
2022-08-19T03:21:40.343Z,988.46
2022-08-19T03:22:40.339Z,988.48
2022-08-19T03:23:40.331Z,988.49
2022-08-19T03:24:40.320Z,988.46
2022-08-19T03:25:40.338Z,988.41
2022-08-19T03:26:40.306Z,988.46
2022-08-19T03:27:40.296Z,988.43
2022-08-19T03:28:40.294Z,988.56
2022-08-19T03:29:43.865Z,988.48
2022-08-19T03:30:40.298Z,988.48
2022-08-19T03:31:45.664Z,988.48
2022-08-19T03:32:45.327Z,988.49
2022-08-19T03:33:40.249Z,988.52
2022-08-19T03:34:40.246Z,988.52
2022-08-19T03:35:40.266Z,988.61
2022-08-19T03:36:40.235Z,988.59
2022-08-19T03:37:40.225Z,988.63
2022-08-19T03:38:40.213Z,988.65
2022-08-19T03:39:40.238Z,988.68
2022-08-19T03:40:40.227Z,988.69
2022-08-19T03:41:45.361Z,988.72
2022-08-19T03:42:49.368Z,988.74
2022-08-19T03:43:42.171Z,988.76
2022-08-19T03:44:40.165Z,988.79
2022-08-19T03:45:40.181Z,988.75
2022-08-19T03:46:40.153Z,988.72
2022-08-19T03:47:40.142Z,988.74
2022-08-19T03:48:40.135Z,988.73
2022-08-19T03:49:40.126Z,988.75
2022-08-19T03:50:40.139Z,988.77
2022-08-19T03:51:40.114Z,988.79
2022-08-19T03:52:40.102Z,988.73
2022-08-19T03:53:41.093Z,988.71
2022-08-19T03:54:40.090Z,988.69
2022-08-19T03:55:40.110Z,988.69
2022-08-19T03:56:40.072Z,988.71
2022-08-19T03:57:40.072Z,988.74
2022-08-19T03:58:40.060Z,988.75
2022-08-19T03:59:40.048Z,988.76
2022-08-19T04:00:40.066Z,988.75
2022-08-19T04:01:40.070Z,988.78
2022-08-19T04:02:40.026Z,988.83
2022-08-19T04:03:40.016Z,988.77
2022-08-19T04:04:40.010Z,988.76
2022-08-19T04:05:40.021Z,988.74
2022-08-19T04:06:40.106Z,988.82
2022-08-19T04:07:39.983Z,988.74
2022-08-19T04:08:39.978Z,988.81
2022-08-19T04:09:39.969Z,988.81
2022-08-19T04:10:39.986Z,988.80
2022-08-19T04:11:43.165Z,988.73
2022-08-19T04:12:39.945Z,988.77
2022-08-19T04:13:39.935Z,988.72
2022-08-19T04:14:39.938Z,988.78
2022-08-19T04:15:39.942Z,988.79
2022-08-19T04:16:39.916Z,988.78
2022-08-19T04:17:39.902Z,988.78
2022-08-19T04:18:39.888Z,988.77
2022-08-19T04:19:40.888Z,988.73
2022-08-19T04:20:39.910Z,988.75
2022-08-19T04:21:39.878Z,988.71
2022-08-19T04:22:39.865Z,988.72
2022-08-19T04:23:43.065Z,988.75
2022-08-19T04:24:40.849Z,988.73
2022-08-19T04:25:39.866Z,988.76
2022-08-19T04:26:39.836Z,988.79
2022-08-19T04:27:39.827Z,988.80
2022-08-19T04:28:39.821Z,988.74
2022-08-19T04:29:39.811Z,988.81
2022-08-19T04:30:39.827Z,988.80
2022-08-19T04:31:39.801Z,988.82
2022-08-19T04:32:39.789Z,988.84
2022-08-19T04:33:39.790Z,988.83
2022-08-19T04:35:02.752Z,988.80
2022-08-19T04:35:40.792Z,988.83
2022-08-19T04:36:39.754Z,988.79
2022-08-19T04:37:39.746Z,988.80
2022-08-19T04:38:39.744Z,988.78
2022-08-19T04:39:39.768Z,988.74
2022-08-19T04:40:39.754Z,988.78
2022-08-19T04:41:39.724Z,988.84
2022-08-19T04:42:39.713Z,988.82
2022-08-19T04:43:39.701Z,988.84
2022-08-19T04:44:45.980Z,988.81
2022-08-19T04:45:43.947Z,988.82
2022-08-19T04:46:50.873Z,988.85
2022-08-19T04:47:47.616Z,988.80
2022-08-19T04:48:44.164Z,988.87
2022-08-19T04:49:40.655Z,988.87
2022-08-19T04:50:39.674Z,988.95
2022-08-19T04:51:39.635Z,988.95
2022-08-19T04:52:39.629Z,988.95
2022-08-19T04:53:39.623Z,989.00
2022-08-19T04:54:40.082Z,988.99
2022-08-19T04:55:39.632Z,989.00
2022-08-19T04:56:39.598Z,988.99
2022-08-19T04:57:39.592Z,988.92
2022-08-19T04:58:39.582Z,988.89
2022-08-19T04:59:39.591Z,988.90
2022-08-19T05:00:39.648Z,988.90
2022-08-19T05:01:39.559Z,988.80
2022-08-19T05:02:39.550Z,988.84
2022-08-19T05:03:40.538Z,988.79
2022-08-19T05:04:39.553Z,988.78
2022-08-19T05:05:44.447Z,988.88
2022-08-19T05:06:40.521Z,988.86
2022-08-19T05:07:39.516Z,988.89
2022-08-19T05:08:39.504Z,988.92
2022-08-19T05:09:58.491Z,988.87
2022-08-19T05:10:40.548Z,988.87
2022-08-19T05:11:39.476Z,988.94
2022-08-19T05:12:39.471Z,988.90
2022-08-19T05:13:39.465Z,988.94
2022-08-19T05:14:39.456Z,988.92
2022-08-19T05:15:39.474Z,988.82
2022-08-19T05:16:39.445Z,988.97
2022-08-19T05:17:39.476Z,988.94
2022-08-19T05:18:39.426Z,988.98
2022-08-19T05:19:39.415Z,989.01
2022-08-19T05:20:39.438Z,989.01
2022-08-19T05:21:39.410Z,989.02
2022-08-19T05:22:39.396Z,989.02
2022-08-19T05:23:39.386Z,989.00
2022-08-19T05:24:56.362Z,988.94
2022-08-19T05:25:41.398Z,988.91
2022-08-19T05:26:39.368Z,988.93
2022-08-19T05:27:39.354Z,988.92
2022-08-19T05:28:39.350Z,988.92
2022-08-19T05:29:39.344Z,988.91
2022-08-19T05:30:47.343Z,988.88
2022-08-19T05:31:41.743Z,988.90
2022-08-19T05:32:39.314Z,988.90
2022-08-19T05:33:39.314Z,988.96
2022-08-19T05:34:39.311Z,988.94
2022-08-19T05:35:39.324Z,988.97
2022-08-19T05:36:39.285Z,988.95
2022-08-19T05:37:39.280Z,988.98
2022-08-19T05:38:39.271Z,988.93
2022-08-19T05:39:39.359Z,989.00
2022-08-19T05:40:39.285Z,988.86
2022-08-19T05:41:39.255Z,988.94
2022-08-19T05:42:39.245Z,988.94
2022-08-19T05:43:39.234Z,988.97
2022-08-19T05:44:39.231Z,988.89
2022-08-19T05:45:39.247Z,988.91
2022-08-19T05:46:39.210Z,988.92
2022-08-19T05:47:42.197Z,988.96
2022-08-19T05:48:39.200Z,988.99
2022-08-19T05:49:39.182Z,988.98
2022-08-19T05:50:39.208Z,988.85
2022-08-19T05:51:39.173Z,988.92
2022-08-19T05:52:39.196Z,988.95
2022-08-19T05:53:39.155Z,988.92
2022-08-19T05:54:39.142Z,988.96
2022-08-19T05:55:40.174Z,988.93
2022-08-19T05:56:39.139Z,988.96
2022-08-19T05:57:39.130Z,988.92
2022-08-19T05:58:39.142Z,988.97
2022-08-19T05:59:39.272Z,988.97
2022-08-19T06:00:39.139Z,988.91
2022-08-19T06:01:39.095Z,988.95
2022-08-19T06:02:39.108Z,989.03
2022-08-19T06:03:39.079Z,988.96
2022-08-19T06:04:39.072Z,988.95
2022-08-19T06:05:39.184Z,988.98
2022-08-19T06:06:41.082Z,989.00
2022-08-19T06:07:39.065Z,989.04
2022-08-19T06:08:39.043Z,989.02
2022-08-19T06:09:39.035Z,989.10
2022-08-19T06:10:39.032Z,989.06
2022-08-19T06:11:39.059Z,989.05
2022-08-19T06:12:39.012Z,989.07
2022-08-19T06:13:39.011Z,989.16
2022-08-19T06:14:41.859Z,989.13
2022-08-19T06:15:38.993Z,989.14
2022-08-19T06:16:39.011Z,989.23
2022-08-19T06:17:38.974Z,989.16
2022-08-19T06:18:38.971Z,989.24
2022-08-19T06:19:40.532Z,989.27
2022-08-19T06:20:54.922Z,989.26
2022-08-19T06:21:40.969Z,989.33
2022-08-19T06:22:38.929Z,989.29
2022-08-19T06:23:38.926Z,989.32
2022-08-19T06:24:38.925Z,989.38
2022-08-19T06:25:38.912Z,989.30
2022-08-19T06:26:38.963Z,989.34
2022-08-19T06:27:48.281Z,989.28
2022-08-19T06:28:40.887Z,989.40
2022-08-19T06:29:38.882Z,989.38
2022-08-19T06:30:38.989Z,989.38
2022-08-19T06:31:38.894Z,989.42
2022-08-19T06:32:42.712Z,989.43
2022-08-19T06:33:39.848Z,989.45
2022-08-19T06:34:38.841Z,989.38
2022-08-19T06:35:38.880Z,989.42
2022-08-19T06:36:38.866Z,989.46
2022-08-19T06:37:42.034Z,989.51
2022-08-19T06:38:39.813Z,989.53
2022-08-19T06:39:38.842Z,989.50
2022-08-19T06:40:38.817Z,989.60
2022-08-19T06:41:43.610Z,989.52
2022-08-19T06:42:44.809Z,989.56
2022-08-19T06:43:42.128Z,989.62
2022-08-19T06:44:42.756Z,989.61
2022-08-19T06:45:39.559Z,989.68
2022-08-19T06:46:38.775Z,989.70
2022-08-19T06:47:38.736Z,989.74
2022-08-19T06:48:45.331Z,989.79
2022-08-19T06:49:40.724Z,989.88
2022-08-19T06:50:39.624Z,989.84
2022-08-19T06:51:42.626Z,989.88
2022-08-19T06:52:38.701Z,989.89
2022-08-19T06:53:38.702Z,989.85
2022-08-19T06:54:55.688Z,989.83
2022-08-19T06:55:39.709Z,989.87
2022-08-19T06:56:38.660Z,989.84
2022-08-19T06:57:39.663Z,989.83
2022-08-19T06:58:38.654Z,989.82
2022-08-19T06:59:38.645Z,989.75
2022-08-19T07:00:38.637Z,989.72
2022-08-19T07:01:38.654Z,989.71
2022-08-19T07:02:38.624Z,989.77
2022-08-19T07:03:39.728Z,989.82
2022-08-19T07:04:38.611Z,989.79
2022-08-19T07:05:38.600Z,989.77
2022-08-19T07:06:43.572Z,989.74
2022-08-19T07:07:40.584Z,989.84
2022-08-19T07:09:38.585Z,989.84
2022-08-19T07:10:38.564Z,989.87
2022-08-19T07:11:38.578Z,989.82
2022-08-19T07:12:38.551Z,989.87
2022-08-19T07:13:38.543Z,989.86
2022-08-19T07:14:38.528Z,989.93
2022-08-19T07:15:38.551Z,989.93
2022-08-19T07:16:42.515Z,989.92
2022-08-19T07:17:39.507Z,989.90
2022-08-19T07:18:38.500Z,989.93
2022-08-19T07:19:38.495Z,990.00
2022-08-19T07:20:38.510Z,989.97
2022-08-19T07:21:38.478Z,989.99
2022-08-19T07:22:38.481Z,989.99
2022-08-19T07:24:38.457Z,990.01
2022-08-19T07:25:38.475Z,989.89
2022-08-19T07:26:38.444Z,989.96
2022-08-19T07:27:39.797Z,989.97
2022-08-19T07:28:38.432Z,989.99
2022-08-19T07:29:39.419Z,990.00
2022-08-19T07:30:38.439Z,990.02
2022-08-19T07:31:38.431Z,990.03
2022-08-19T07:32:38.394Z,990.04
2022-08-19T07:33:38.387Z,990.00
2022-08-19T07:34:38.381Z,990.01
2022-08-19T07:35:38.399Z,989.96
2022-08-19T07:36:38.371Z,989.97
2022-08-19T07:37:38.365Z,989.91
2022-08-19T07:38:38.353Z,989.88
2022-08-19T07:39:38.430Z,989.89
2022-08-19T07:40:38.382Z,989.88
2022-08-19T07:41:38.326Z,989.88
2022-08-19T07:42:38.323Z,989.89
2022-08-19T07:43:38.313Z,989.88
2022-08-19T07:45:38.321Z,989.89
2022-08-19T07:46:38.289Z,989.83
2022-08-19T07:47:47.989Z,989.90
2022-08-19T07:48:39.275Z,989.92
2022-08-19T07:49:38.268Z,989.89
2022-08-19T07:50:38.284Z,989.94
2022-08-19T07:51:38.254Z,989.96
2022-08-19T07:52:38.243Z,989.94
2022-08-19T07:53:39.879Z,989.96
2022-08-19T07:54:39.230Z,989.88
2022-08-19T07:55:41.817Z,989.88
2022-08-19T07:56:39.213Z,989.94
2022-08-19T07:57:38.250Z,989.98
2022-08-19T07:58:38.197Z,989.95
2022-08-19T07:59:38.214Z,990.05
2022-08-19T08:00:38.207Z,990.06
2022-08-19T08:01:41.775Z,990.09
2022-08-19T08:02:38.168Z,990.04
2022-08-19T08:03:38.163Z,990.06
2022-08-19T08:04:38.151Z,990.10
2022-08-19T08:05:41.774Z,990.16
2022-08-19T08:06:40.137Z,990.18
2022-08-19T08:07:38.131Z,990.12
2022-08-19T08:08:43.843Z,990.16
2022-08-19T08:09:39.334Z,990.16
2022-08-19T08:10:38.143Z,990.23
2022-08-19T08:11:38.099Z,990.24
2022-08-19T08:12:38.093Z,990.25
2022-08-19T08:13:39.085Z,990.28
2022-08-19T08:14:38.078Z,990.32
2022-08-19T08:15:43.080Z,990.36
2022-08-19T08:16:39.694Z,990.28
2022-08-19T08:17:49.612Z,990.31
2022-08-19T08:18:39.049Z,990.25
2022-08-19T08:19:38.043Z,990.27
2022-08-19T08:20:38.058Z,990.28
2022-08-19T08:21:38.052Z,990.35
2022-08-19T08:22:38.017Z,990.35
2022-08-19T08:23:39.810Z,990.33
2022-08-19T08:24:37.997Z,990.36
2022-08-19T08:25:38.014Z,990.36
2022-08-19T08:26:37.984Z,990.40
2022-08-19T08:27:38.974Z,990.33
2022-08-19T08:28:37.967Z,990.38
2022-08-19T08:29:37.964Z,990.35
2022-08-19T08:30:37.977Z,990.38
2022-08-19T08:31:37.948Z,990.38
2022-08-19T08:32:37.937Z,990.42
2022-08-19T08:33:37.929Z,990.39
2022-08-19T08:34:37.923Z,990.40
2022-08-19T08:35:37.935Z,990.42
2022-08-19T08:36:37.909Z,990.47
2022-08-19T08:37:37.899Z,990.40
2022-08-19T08:38:40.117Z,990.38
2022-08-19T08:39:38.967Z,990.39
2022-08-19T08:40:37.899Z,990.45
2022-08-19T08:41:37.867Z,990.46
2022-08-19T08:42:37.856Z,990.51
2022-08-19T08:43:37.854Z,990.48
2022-08-19T08:44:37.857Z,990.48
2022-08-19T08:45:40.898Z,990.45
2022-08-19T08:46:37.832Z,990.52
2022-08-19T08:47:38.096Z,990.54
2022-08-19T08:48:37.837Z,990.48
2022-08-19T08:49:37.810Z,990.48
2022-08-19T08:50:37.811Z,990.44
2022-08-19T08:51:37.857Z,990.37
2022-08-19T08:52:37.784Z,990.40
2022-08-19T08:53:41.467Z,990.43
2022-08-19T08:54:38.772Z,990.47
2022-08-19T08:55:37.789Z,990.49
2022-08-19T08:56:37.753Z,990.41
2022-08-19T08:57:40.960Z,990.43
2022-08-19T08:58:37.737Z,990.37
2022-08-19T08:59:37.738Z,990.39
2022-08-19T09:00:37.720Z,990.38
2022-08-19T09:01:37.757Z,990.42
2022-08-19T09:02:37.697Z,990.40
2022-08-19T09:03:37.689Z,990.42
2022-08-19T09:04:37.715Z,990.44
2022-08-19T09:05:41.504Z,990.48
2022-08-19T09:06:40.792Z,990.45
2022-08-19T09:07:38.856Z,990.50
2022-08-19T09:08:38.654Z,990.48
2022-08-19T09:09:37.656Z,990.49
2022-08-19T09:10:44.809Z,990.48
2022-08-19T09:11:42.431Z,990.49
2022-08-19T09:12:38.621Z,990.57
2022-08-19T09:13:37.876Z,990.42
2022-08-19T09:14:50.247Z,990.44
2022-08-19T09:15:39.619Z,990.46
2022-08-19T09:16:37.620Z,990.43
2022-08-19T09:17:37.585Z,990.43
2022-08-19T09:18:37.594Z,990.42
2022-08-19T09:19:37.571Z,990.35
2022-08-19T09:20:37.561Z,990.35
2022-08-19T09:21:38.575Z,990.38
2022-08-19T09:22:37.543Z,990.39
2022-08-19T09:23:37.542Z,990.37
2022-08-19T09:24:37.527Z,990.35
2022-08-19T09:25:37.535Z,990.37
2022-08-19T09:26:52.318Z,990.36
2022-08-19T09:27:53.914Z,990.37
2022-08-19T09:28:38.498Z,990.40
2022-08-19T09:29:37.491Z,990.31
2022-08-19T09:30:37.483Z,990.37
2022-08-19T09:31:37.503Z,990.37
2022-08-19T09:32:37.468Z,990.38
2022-08-19T09:33:37.468Z,990.33
2022-08-19T09:34:37.957Z,990.33
2022-08-19T09:35:50.149Z,990.36
2022-08-19T09:36:38.475Z,990.30
2022-08-19T09:37:37.430Z,990.36
2022-08-19T09:38:37.426Z,990.35
2022-08-19T09:39:38.444Z,990.31
2022-08-19T09:40:38.547Z,990.33
2022-08-19T09:41:38.426Z,990.38
2022-08-19T09:42:37.399Z,990.29
2022-08-19T09:43:44.409Z,990.35
2022-08-19T09:44:38.378Z,990.28
2022-08-19T09:45:37.369Z,990.33
2022-08-19T09:46:37.390Z,990.29
2022-08-19T09:47:37.348Z,990.40
2022-08-19T09:48:37.338Z,990.34
2022-08-19T09:49:37.336Z,990.43
2022-08-19T09:50:37.325Z,990.45
2022-08-19T09:51:37.475Z,990.36
2022-08-19T09:52:37.311Z,990.40
2022-08-19T09:53:37.378Z,990.40
2022-08-19T09:54:37.308Z,990.39
2022-08-19T09:55:37.303Z,990.36
2022-08-19T09:56:37.316Z,990.42
2022-08-19T09:57:37.278Z,990.45
2022-08-19T09:58:37.274Z,990.31
2022-08-19T09:59:37.274Z,990.35
2022-08-19T10:00:37.255Z,990.34
2022-08-19T10:01:37.353Z,990.26
2022-08-19T10:02:37.241Z,990.40
2022-08-19T10:03:37.243Z,990.21
2022-08-19T10:04:37.223Z,990.24
2022-08-19T10:05:37.217Z,990.24
2022-08-19T10:06:45.662Z,990.26
2022-08-19T10:07:38.197Z,990.33
2022-08-19T10:08:37.191Z,990.28
2022-08-19T10:09:37.182Z,990.29
2022-08-19T10:10:37.177Z,990.30
2022-08-19T10:11:40.628Z,990.21
2022-08-19T10:12:38.161Z,990.22
2022-08-19T10:13:38.153Z,990.30
2022-08-19T10:14:37.144Z,990.27
2022-08-19T10:15:47.179Z,990.13
2022-08-19T10:16:39.768Z,990.23
2022-08-19T10:17:37.120Z,990.18
2022-08-19T10:18:37.115Z,990.24
2022-08-19T10:19:37.108Z,990.18
2022-08-19T10:20:37.095Z,990.11
2022-08-19T10:21:37.086Z,990.18
2022-08-19T10:22:37.099Z,990.15
2022-08-19T10:23:37.071Z,990.17
2022-08-19T10:24:37.090Z,990.15
2022-08-19T10:25:38.434Z,990.21
2022-08-19T10:26:37.058Z,990.15
2022-08-19T10:27:37.077Z,990.08
2022-08-19T10:28:37.038Z,990.13
2022-08-19T10:29:37.029Z,990.15
2022-08-19T10:30:38.055Z,990.03
2022-08-19T10:32:01.139Z,990.06
2022-08-19T10:32:38.032Z,989.99
2022-08-19T10:33:40.954Z,989.96
2022-08-19T10:34:37.987Z,989.93
2022-08-19T10:35:56.258Z,990.00
2022-08-19T10:36:37.990Z,989.91
2022-08-19T10:37:37.992Z,989.97
2022-08-19T10:38:37.959Z,989.90
2022-08-19T10:39:43.429Z,989.98
2022-08-19T10:40:37.945Z,989.98
2022-08-19T10:41:36.944Z,989.92
2022-08-19T10:42:36.963Z,989.89
2022-08-19T10:43:36.952Z,989.83
2022-08-19T10:44:36.915Z,989.96
2022-08-19T10:45:36.933Z,989.83
2022-08-19T10:46:37.903Z,989.84
2022-08-19T10:47:36.925Z,989.94
2022-08-19T10:48:36.889Z,989.86
2022-08-19T10:49:36.881Z,989.86
2022-08-19T10:50:36.871Z,989.89
2022-08-19T10:51:36.865Z,989.85
2022-08-19T10:52:38.815Z,989.81
2022-08-19T10:53:36.853Z,989.87
2022-08-19T10:54:36.840Z,989.80
2022-08-19T10:55:36.861Z,989.85
2022-08-19T10:56:36.832Z,989.87
2022-08-19T10:58:03.302Z,989.86
2022-08-19T10:58:38.816Z,989.87
2022-08-19T10:59:36.806Z,989.91
2022-08-19T11:00:36.803Z,989.88
2022-08-19T11:01:36.843Z,989.88
2022-08-19T11:02:36.809Z,989.86
2022-08-19T11:03:36.778Z,989.94
2022-08-19T11:04:36.769Z,989.92
2022-08-19T11:05:39.936Z,989.93
2022-08-19T11:06:36.751Z,989.89
2022-08-19T11:07:36.781Z,989.88
2022-08-19T11:08:36.737Z,989.76
2022-08-19T11:09:36.735Z,989.80
2022-08-19T11:10:36.725Z,989.87
2022-08-19T11:11:38.457Z,989.86
2022-08-19T11:12:36.731Z,989.91
2022-08-19T11:13:36.694Z,989.86
2022-08-19T11:14:36.690Z,989.85
2022-08-19T11:15:36.679Z,989.86
2022-08-19T11:16:36.671Z,989.85
2022-08-19T11:17:36.665Z,989.87
2022-08-19T11:18:36.718Z,989.68
2022-08-19T11:19:36.650Z,989.77
2022-08-19T11:20:36.648Z,989.78
2022-08-19T11:21:36.635Z,989.73
2022-08-19T11:22:40.628Z,989.80
2022-08-19T11:23:37.646Z,989.71
2022-08-19T11:24:36.607Z,989.71
2022-08-19T11:25:36.594Z,989.73
2022-08-19T11:26:37.596Z,989.70
2022-08-19T11:27:36.604Z,989.70
2022-08-19T11:28:36.602Z,989.71
2022-08-19T11:29:36.574Z,989.72
2022-08-19T11:30:36.566Z,989.75
2022-08-19T11:31:36.557Z,989.75
2022-08-19T11:32:36.549Z,989.80
2022-08-19T11:33:36.571Z,989.75
2022-08-19T11:34:36.545Z,989.77
2022-08-19T11:35:36.524Z,989.75
2022-08-19T11:36:36.519Z,989.78
2022-08-19T11:37:36.515Z,989.70
2022-08-19T11:38:36.534Z,989.70
2022-08-19T11:39:36.579Z,989.68
2022-08-19T11:40:36.494Z,989.70
2022-08-19T11:41:36.475Z,989.69
2022-08-19T11:42:36.498Z,989.74
2022-08-19T11:43:37.641Z,989.64
2022-08-19T11:44:37.455Z,989.77
2022-08-19T11:45:36.445Z,989.72
2022-08-19T11:46:36.442Z,989.76
2022-08-19T11:47:36.454Z,989.76
2022-08-19T11:48:36.427Z,989.73
2022-08-19T11:49:36.416Z,989.80
2022-08-19T11:50:36.408Z,989.79
2022-08-19T11:51:36.416Z,989.81
2022-08-19T11:52:36.428Z,989.76
2022-08-19T11:53:36.391Z,989.80
2022-08-19T11:54:36.380Z,989.81
2022-08-19T11:55:36.371Z,989.82
2022-08-19T11:56:37.360Z,989.85
2022-08-19T11:57:36.381Z,989.77
2022-08-19T11:58:36.364Z,989.77
2022-08-19T11:59:36.343Z,989.81
2022-08-19T12:00:36.334Z,989.78
2022-08-19T12:01:36.325Z,989.75
2022-08-19T12:02:36.350Z,989.78
2022-08-19T12:03:37.336Z,989.78
2022-08-19T12:04:36.318Z,989.87
2022-08-19T12:05:36.303Z,989.80
2022-08-19T12:06:36.294Z,989.82
2022-08-19T12:07:36.309Z,989.73
2022-08-19T12:08:36.277Z,989.74
2022-08-19T12:09:36.278Z,989.75
2022-08-19T12:10:36.288Z,989.76
2022-08-19T12:11:36.248Z,989.79
2022-08-19T12:12:36.272Z,989.81
2022-08-19T12:13:36.236Z,989.78
2022-08-19T12:14:36.257Z,989.79
2022-08-19T12:15:36.877Z,989.82
2022-08-19T12:16:37.770Z,989.74
2022-08-19T12:17:37.231Z,989.78
2022-08-19T12:18:36.195Z,989.76
2022-08-19T12:19:36.189Z,989.65
2022-08-19T12:20:36.478Z,989.68
2022-08-19T12:21:36.188Z,989.55
2022-08-19T12:22:36.204Z,989.55
2022-08-19T12:23:36.157Z,989.53
2022-08-19T12:24:36.154Z,989.60
2022-08-19T12:25:36.147Z,989.58
2022-08-19T12:26:53.113Z,989.47
2022-08-19T12:27:40.716Z,989.58
2022-08-19T12:28:36.120Z,989.47
2022-08-19T12:29:36.121Z,989.52
2022-08-19T12:30:36.110Z,989.59
2022-08-19T12:31:36.102Z,989.56